Capitol Logistics 215


MMGL
Don Miguel Hidalgo y Costilla International Airport
Guadalajara, MX
MMMX
Benito Juárez International Airport
Mexico City, MX

Activity Log

Date Flight Route Aircraft Duration
12/15/2019 CPX215 GDL4A GDL UJ14 QET UJ5 TIKEB TIKEB1A B763 1h 10m
08/14/2019 CPX215 GDL4A GDL UJ14 QET UJ5 TIKEB TIKEB1A B763 1h 04m
08/13/2019 CPX215 GDL2C GDL UJ14 QET UJ33 TIKEB TIKE1A B763 0h 59m
12/13/2018 CPX217 GDL4A GDL UJ14 QET UJ5 TIKEB TIKEB1A B763 0h 46m

Route Details

Aircraft Information
Primary: Boeing 767-300BDSF
Backup: Not Available
Route Data
Distance: 268nm
Sched. Duration: 1h 00m
Avg. Duration: 0h 79m (-20m)
Times Flown: 4
Recm'd Route: GDL4A GDL UJ14 QET UJ5 TIKEB TIKEB1A
Planned Altitude: 29,000ft
Origin Wx: MMGL 060740Z 28004KT 10SM SCT090 21/14 A3006 RMK 8/030
Dest. Wx: MMMX 060747Z 00000KT 10SM SCT020 17/10 A3026 NOSIG RMK 8/500 ISOL AC
Notes:

Financial History
Total Freight: 396,889lbs
Average Load: 99,222lbs/flt
Fuel Used: 43,070lbs
Avg. Fuel Used: 10,768lbs/flt
Fuel Expense: $26,156
Avg. Fuel Expense: $6,539
Avg. Fuel Cost: $0.61/lbs
Total Gross Income: $486,297
Pilot Pay: $756
Total Expenses: $52,728
Total Revenue: $406,461
Average Revenue: $121,574.31